sensor_id;sensor_type;location;lat;lon;timestamp;temperature;humidity
72786;DHT22;60902;53.876;10.674;2023-05-29T00:00:02;15.70;66.90
72786;DHT22;60902;53.876;10.674;2023-05-29T00:00:17;15.70;67.00
72786;DHT22;60902;53.876;10.674;2023-05-29T00:00:31;15.70;67.00
72786;DHT22;60902;53.876;10.674;2023-05-29T00:00:43;15.70;67.00
72786;DHT22;60902;53.876;10.674;2023-05-29T00:00:54;15.70;67.00
72786;DHT22;60902;53.876;10.674;2023-05-29T00:01:05;15.70;66.90
72786;DHT22;60902;53.876;10.674;2023-05-29T00:01:18;15.70;66.90
72786;DHT22;60902;53.876;10.674;2023-05-29T00:01:30;15.70;67.00
72786;DHT22;60902;53.876;10.674;2023-05-29T00:01:42;15.70;67.00
72786;DHT22;60902;53.876;10.674;2023-05-29T00:01:54;15.70;67.00
72786;DHT22;60902;53.876;10.674;2023-05-29T00:02:05;15.70;67.00
72786;DHT22;60902;53.876;10.674;2023-05-29T00:02:16;15.70;67.00
72786;DHT22;60902;53.876;10.674;2023-05-29T00:02:26;15.60;66.90
72786;DHT22;60902;53.876;10.674;2023-05-29T00:02:37;15.70;67.00
72786;DHT22;60902;53.876;10.674;2023-05-29T00:02:49;15.60;67.00
72786;DHT22;60902;53.876;10.674;2023-05-29T00:03:00;15.70;67.00
72786;DHT22;60902;53.876;10.674;2023-05-29T00:03:12;15.70;67.00
72786;DHT22;60902;53.876;10.674;2023-05-29T00:03:24;15.70;67.00
72786;DHT22;60902;53.876;10.674;2023-05-29T00:03:39;15.60;66.90
72786;DHT22;60902;53.876;10.674;2023-05-29T00:03:50;15.60;66.90
72786;DHT22;60902;53.876;10.674;2023-05-29T00:04:01;15.70;67.00
72786;DHT22;60902;53.876;10.674;2023-05-29T00:04:12;15.70;67.00
72786;DHT22;60902;53.876;10.674;2023-05-29T00:04:23;15.70;67.00
72786;DHT22;60902;53.876;10.674;2023-05-29T00:04:34;15.70;67.00
72786;DHT22;60902;53.876;10.674;2023-05-29T00:04:46;15.60;67.00
72786;DHT22;60902;53.876;10.674;2023-05-29T00:05:02;15.70;67.00
72786;DHT22;60902;53.876;10.674;2023-05-29T00:05:14;15.60;66.90
72786;DHT22;60902;53.876;10.674;2023-05-29T00:05:25;15.70;67.00
72786;DHT22;60902;53.876;10.674;2023-05-29T00:05:36;15.70;67.00
72786;DHT22;60902;53.876;10.674;2023-05-29T00:05:47;15.70;67.00
72786;DHT22;60902;53.876;10.674;2023-05-29T00:06:01;15.70;67.00
72786;DHT22;60902;53.876;10.674;2023-05-29T00:06:13;15.60;66.90
72786;DHT22;60902;53.876;10.674;2023-05-29T00:06:25;15.60;66.90
72786;DHT22;60902;53.876;10.674;2023-05-29T00:06:36;15.70;67.00
72786;DHT22;60902;53.876;10.674;2023-05-29T00:06:47;15.70;66.90
72786;DHT22;60902;53.876;10.674;2023-05-29T00:06:57;15.70;67.00
72786;DHT22;60902;53.876;10.674;2023-05-29T00:07:08;15.70;67.00
72786;DHT22;60902;53.876;10.674;2023-05-29T00:07:19;15.60;66.90
72786;DHT22;60902;53.876;10.674;2023-05-29T00:07:30;15.70;67.00
72786;DHT22;60902;53.876;10.674;2023-05-29T00:07:41;15.60;66.90
72786;DHT22;60902;53.876;10.674;2023-05-29T00:07:53;15.60;66.90
72786;DHT22;60902;53.876;10.674;2023-05-29T00:08:04;15.70;67.00
72786;DHT22;60902;53.876;10.674;2023-05-29T00:08:16;15.70;68.00
72786;DHT22;60902;53.876;10.674;2023-05-29T00:08:26;15.70;67.00
72786;DHT22;60902;53.876;10.674;2023-05-29T00:08:39;15.60;66.90
72786;DHT22;60902;53.876;10.674;2023-05-29T00:08:50;15.70;67.00
72786;DHT22;60902;53.876;10.674;2023-05-29T00:09:01;15.70;67.00
72786;DHT22;60902;53.876;10.674;2023-05-29T00:09:15;15.60;66.90
72786;DHT22;60902;53.876;10.674;2023-05-29T00:09:27;15.60;67.00
72786;DHT22;60902;53.876;10.674;2023-05-29T00:09:38;15.70;67.00
72786;DHT22;60902;53.876;10.674;2023-05-29T00:09:52;15.60;66.90
72786;DHT22;60902;53.876;10.674;2023-05-29T00:10:04;15.70;67.00
72786;DHT22;60902;53.876;10.674;2023-05-29T00:10:19;15.70;67.00
72786;DHT22;60902;53.876;10.674;2023-05-29T00:10:31;15.70;67.00
72786;DHT22;60902;53.876;10.674;2023-05-29T00:10:42;15.70;67.10
72786;DHT22;60902;53.876;10.674;2023-05-29T00:10:53;15.70;67.00
72786;DHT22;60902;53.876;10.674;2023-05-29T00:11:04;15.70;67.10
72786;DHT22;60902;53.876;10.674;2023-05-29T00:11:15;15.70;67.10
72786;DHT22;60902;53.876;10.674;2023-05-29T00:11:28;15.60;66.90
72786;DHT22;60902;53.876;10.674;2023-05-29T00:11:39;15.70;67.10
72786;DHT22;60902;53.876;10.674;2023-05-29T00:11:52;15.60;66.90
72786;DHT22;60902;53.876;10.674;2023-05-29T00:12:04;15.70;67.10
72786;DHT22;60902;53.876;10.674;2023-05-29T00:12:16;15.70;67.10
72786;DHT22;60902;53.876;10.674;2023-05-29T00:12:27;15.60;67.00
72786;DHT22;60902;53.876;10.674;2023-05-29T00:12:38;15.70;67.00
72786;DHT22;60902;53.876;10.674;2023-05-29T00:12:49;15.70;67.00
72786;DHT22;60902;53.876;10.674;2023-05-29T00:13:01;15.60;68.00
72786;DHT22;60902;53.876;10.674;2023-05-29T00:13:12;15.60;67.00
72786;DHT22;60902;53.876;10.674;2023-05-29T00:13:23;15.70;67.10
72786;DHT22;60902;53.876;10.674;2023-05-29T00:13:35;15.70;67.10
72786;DHT22;60902;53.876;10.674;2023-05-29T00:13:46;15.70;67.10
72786;DHT22;60902;53.876;10.674;2023-05-29T00:13:57;15.70;67.00
72786;DHT22;60902;53.876;10.674;2023-05-29T00:14:08;15.70;67.00
72786;DHT22;60902;53.876;10.674;2023-05-29T00:14:23;15.60;67.00
72786;DHT22;60902;53.876;10.674;2023-05-29T00:14:34;15.70;67.00
72786;DHT22;60902;53.876;10.674;2023-05-29T00:14:45;15.70;67.00
72786;DHT22;60902;53.876;10.674;2023-05-29T00:14:56;15.70;67.00
72786;DHT22;60902;53.876;10.674;2023-05-29T00:15:09;15.60;67.00
72786;DHT22;60902;53.876;10.674;2023-05-29T00:15:20;15.70;67.10
72786;DHT22;60902;53.876;10.674;2023-05-29T00:15:31;15.70;67.00
72786;DHT22;60902;53.876;10.674;2023-05-29T00:15:42;15.60;66.90
72786;DHT22;60902;53.876;10.674;2023-05-29T00:15:53;15.60;67.00
72786;DHT22;60902;53.876;10.674;2023-05-29T00:16:04;15.70;67.00
72786;DHT22;60902;53.876;10.674;2023-05-29T00:16:15;15.60;67.00
72786;DHT22;60902;53.876;10.674;2023-05-29T00:16:35;15.60;67.00
72786;DHT22;60902;53.876;10.674;2023-05-29T00:16:48;15.60;67.90
72786;DHT22;60902;53.876;10.674;2023-05-29T00:16:59;15.70;67.10
72786;DHT22;60902;53.876;10.674;2023-05-29T00:17:13;15.60;67.00
72786;DHT22;60902;53.876;10.674;2023-05-29T00:17:38;15.70;67.10
72786;DHT22;60902;53.876;10.674;2023-05-29T00:17:50;15.70;67.10
72786;DHT22;60902;53.876;10.674;2023-05-29T00:18:03;15.60;67.00
72786;DHT22;60902;53.876;10.674;2023-05-29T00:18:14;15.60;67.10
72786;DHT22;60902;53.876;10.674;2023-05-29T00:18:25;15.70;67.10
72786;DHT22;60902;53.876;10.674;2023-05-29T00:18:37;15.60;67.00
72786;DHT22;60902;53.876;10.674;2023-05-29T00:18:57;15.70;67.10
72786;DHT22;60902;53.876;10.674;2023-05-29T00:19:08;15.70;67.10
72786;DHT22;60902;53.876;10.674;2023-05-29T00:19:19;15.70;67.10
72786;DHT22;60902;53.876;10.674;2023-05-29T00:19:31;15.60;67.00
72786;DHT22;60902;53.876;10.674;2023-05-29T00:19:43;15.60;67.10
72786;DHT22;60902;53.876;10.674;2023-05-29T00:19:54;15.70;67.10
72786;DHT22;60902;53.876;10.674;2023-05-29T00:20:08;15.70;67.10
72786;DHT22;60902;53.876;10.674;2023-05-29T00:20:20;15.60;67.00
72786;DHT22;60902;53.876;10.674;2023-05-29T00:20:31;15.70;67.10
72786;DHT22;60902;53.876;10.674;2023-05-29T00:20:44;15.60;67.00
72786;DHT22;60902;53.876;10.674;2023-05-29T00:20:55;15.60;67.00
72786;DHT22;60902;53.876;10.674;2023-05-29T00:21:08;15.60;67.00
72786;DHT22;60902;53.876;10.674;2023-05-29T00:21:19;15.60;67.00
72786;DHT22;60902;53.876;10.674;2023-05-29T00:21:30;15.70;67.10
72786;DHT22;60902;53.876;10.674;2023-05-29T00:21:41;15.70;67.10
72786;DHT22;60902;53.876;10.674;2023-05-29T00:21:52;15.70;67.10
72786;DHT22;60902;53.876;10.674;2023-05-29T00:22:03;15.70;67.10
72786;DHT22;60902;53.876;10.674;2023-05-29T00:22:14;15.60;67.00
72786;DHT22;60902;53.876;10.674;2023-05-29T00:22:26;15.60;67.00
72786;DHT22;60902;53.876;10.674;2023-05-29T00:22:37;15.70;67.10
72786;DHT22;60902;53.876;10.674;2023-05-29T00:22:49;15.70;67.10
72786;DHT22;60902;53.876;10.674;2023-05-29T00:23:00;15.60;67.00
72786;DHT22;60902;53.876;10.674;2023-05-29T00:23:12;15.60;67.00
72786;DHT22;60902;53.876;10.674;2023-05-29T00:23:23;15.70;67.10
72786;DHT22;60902;53.876;10.674;2023-05-29T00:23:34;15.70;67.10
72786;DHT22;60902;53.876;10.674;2023-05-29T00:23:47;15.60;67.00
72786;DHT22;60902;53.876;10.674;2023-05-29T00:23:59;15.60;68.00
72786;DHT22;60902;53.876;10.674;2023-05-29T00:24:10;15.60;67.00
72786;DHT22;60902;53.876;10.674;2023-05-29T00:24:22;15.70;67.10
72786;DHT22;60902;53.876;10.674;2023-05-29T00:24:33;15.70;67.10
72786;DHT22;60902;53.876;10.674;2023-05-29T00:24:43;15.60;67.00
72786;DHT22;60902;53.876;10.674;2023-05-29T00:24:54;15.60;67.00
72786;DHT22;60902;53.876;10.674;2023-05-29T00:25:06;15.60;67.00
72786;DHT22;60902;53.876;10.674;2023-05-29T00:25:18;15.60;67.00
72786;DHT22;60902;53.876;10.674;2023-05-29T00:25:30;15.60;67.00
72786;DHT22;60902;53.876;10.674;2023-05-29T00:25:41;15.60;67.00
72786;DHT22;60902;53.876;10.674;2023-05-29T00:25:52;15.60;67.00
72786;DHT22;60902;53.876;10.674;2023-05-29T00:26:02;15.70;67.10
72786;DHT22;60902;53.876;10.674;2023-05-29T00:26:13;15.60;67.00
72786;DHT22;60902;53.876;10.674;2023-05-29T00:26:27;15.60;67.00
72786;DHT22;60902;53.876;10.674;2023-05-29T00:26:38;15.60;67.00
72786;DHT22;60902;53.876;10.674;2023-05-29T00:26:50;15.60;67.00
72786;DHT22;60902;53.876;10.674;2023-05-29T00:27:01;15.70;67.10
72786;DHT22;60902;53.876;10.674;2023-05-29T00:27:12;15.60;67.10
72786;DHT22;60902;53.876;10.674;2023-05-29T00:27:23;15.60;67.00
72786;DHT22;60902;53.876;10.674;2023-05-29T00:27:34;15.60;67.10
72786;DHT22;60902;53.876;10.674;2023-05-29T00:27:45;15.60;67.00
72786;DHT22;60902;53.876;10.674;2023-05-29T00:27:56;15.70;67.10
72786;DHT22;60902;53.876;10.674;2023-05-29T00:28:07;15.70;67.10
72786;DHT22;60902;53.876;10.674;2023-05-29T00:28:19;15.70;67.10
72786;DHT22;60902;53.876;10.674;2023-05-29T00:28:31;15.60;67.10
72786;DHT22;60902;53.876;10.674;2023-05-29T00:28:45;15.60;67.00
72786;DHT22;60902;53.876;10.674;2023-05-29T00:28:56;15.60;67.00
72786;DHT22;60902;53.876;10.674;2023-05-29T00:29:07;15.70;67.10
72786;DHT22;60902;53.876;10.674;2023-05-29T00:29:18;15.70;67.10
72786;DHT22;60902;53.876;10.674;2023-05-29T00:29:29;15.60;67.00
72786;DHT22;60902;53.876;10.674;2023-05-29T00:29:40;15.60;67.10
72786;DHT22;60902;53.876;10.674;2023-05-29T00:29:51;15.70;67.10
72786;DHT22;60902;53.876;10.674;2023-05-29T00:30:03;15.70;67.10
72786;DHT22;60902;53.876;10.674;2023-05-29T00:30:16;15.60;67.00
72786;DHT22;60902;53.876;10.674;2023-05-29T00:30:27;15.60;67.00
72786;DHT22;60902;53.876;10.674;2023-05-29T00:30:40;15.70;67.10
72786;DHT22;60902;53.876;10.674;2023-05-29T00:30:56;15.70;67.10
72786;DHT22;60902;53.876;10.674;2023-05-29T00:31:07;15.60;67.10
72786;DHT22;60902;53.876;10.674;2023-05-29T00:31:20;15.60;67.00
72786;DHT22;60902;53.876;10.674;2023-05-29T00:31:31;15.70;67.10
72786;DHT22;60902;53.876;10.674;2023-05-29T00:31:48;15.60;67.10
72786;DHT22;60902;53.876;10.674;2023-05-29T00:31:59;15.70;67.10
72786;DHT22;60902;53.876;10.674;2023-05-29T00:32:16;15.60;67.10
72786;DHT22;60902;53.876;10.674;2023-05-29T00:32:31;15.60;67.10
72786;DHT22;60902;53.876;10.674;2023-05-29T00:32:44;15.60;67.10
72786;DHT22;60902;53.876;10.674;2023-05-29T00:32:56;15.60;67.10
72786;DHT22;60902;53.876;10.674;2023-05-29T00:33:24;15.60;67.10
72786;DHT22;60902;53.876;10.674;2023-05-29T00:33:38;15.60;67.10
72786;DHT22;60902;53.876;10.674;2023-05-29T00:33:50;15.60;67.10
72786;DHT22;60902;53.876;10.674;2023-05-29T00:34:01;15.70;67.20
72786;DHT22;60902;53.876;10.674;2023-05-29T00:34:12;15.60;67.10
72786;DHT22;60902;53.876;10.674;2023-05-29T00:34:39;15.60;67.20
72786;DHT22;60902;53.876;10.674;2023-05-29T00:34:50;15.60;68.10
72786;DHT22;60902;53.876;10.674;2023-05-29T00:35:05;15.60;67.20
72786;DHT22;60902;53.876;10.674;2023-05-29T00:35:16;15.60;67.20
72786;DHT22;60902;53.876;10.674;2023-05-29T00:35:27;15.60;67.20
72786;DHT22;60902;53.876;10.674;2023-05-29T00:35:38;15.60;67.20
72786;DHT22;60902;53.876;10.674;2023-05-29T00:35:49;15.60;67.20
72786;DHT22;60902;53.876;10.674;2023-05-29T00:36:00;15.60;68.10
72786;DHT22;60902;53.876;10.674;2023-05-29T00:36:11;15.60;67.20
72786;DHT22;60902;53.876;10.674;2023-05-29T00:36:23;15.60;67.20
72786;DHT22;60902;53.876;10.674;2023-05-29T00:36:35;15.60;67.20
72786;DHT22;60902;53.876;10.674;2023-05-29T00:36:47;15.60;67.20
72786;DHT22;60902;53.876;10.674;2023-05-29T00:36:58;15.60;67.10
72786;DHT22;60902;53.876;10.674;2023-05-29T00:37:09;15.60;67.20
72786;DHT22;60902;53.876;10.674;2023-05-29T00:37:20;15.60;67.20
72786;DHT22;60902;53.876;10.674;2023-05-29T00:37:32;15.60;67.20
72786;DHT22;60902;53.876;10.674;2023-05-29T00:37:43;15.60;67.20
72786;DHT22;60902;53.876;10.674;2023-05-29T00:37:54;15.60;67.20
72786;DHT22;60902;53.876;10.674;2023-05-29T00:38:05;15.60;67.20
72786;DHT22;60902;53.876;10.674;2023-05-29T00:38:16;15.60;67.20
72786;DHT22;60902;53.876;10.674;2023-05-29T00:38:30;15.60;67.10
72786;DHT22;60902;53.876;10.674;2023-05-29T00:38:41;15.60;67.20
72786;DHT22;60902;53.876;10.674;2023-05-29T00:38:52;15.60;67.20
72786;DHT22;60902;53.876;10.674;2023-05-29T00:39:03;15.60;67.20
72786;DHT22;60902;53.876;10.674;2023-05-29T00:39:13;15.60;67.10
72786;DHT22;60902;53.876;10.674;2023-05-29T00:39:24;15.60;67.10
72786;DHT22;60902;53.876;10.674;2023-05-29T00:39:36;15.60;67.20
72786;DHT22;60902;53.876;10.674;2023-05-29T00:39:47;15.70;67.30
72786;DHT22;60902;53.876;10.674;2023-05-29T00:39:58;15.60;67.20
72786;DHT22;60902;53.876;10.674;2023-05-29T00:40:10;15.60;68.10
72786;DHT22;60902;53.876;10.674;2023-05-29T00:40:21;15.60;67.20
72786;DHT22;60902;53.876;10.674;2023-05-29T00:40:32;15.60;67.20
72786;DHT22;60902;53.876;10.674;2023-05-29T00:40:44;15.60;67.20
72786;DHT22;60902;53.876;10.674;2023-05-29T00:40:55;15.70;67.30
72786;DHT22;60902;53.876;10.674;2023-05-29T00:41:06;15.60;67.20
72786;DHT22;60902;53.876;10.674;2023-05-29T00:41:17;15.60;67.20
72786;DHT22;60902;53.876;10.674;2023-05-29T00:41:28;15.60;67.20
72786;DHT22;60902;53.876;10.674;2023-05-29T00:41:39;15.60;67.20
72786;DHT22;60902;53.876;10.674;2023-05-29T00:41:50;15.60;67.20
72786;DHT22;60902;53.876;10.674;2023-05-29T00:42:01;15.60;67.20
72786;DHT22;60902;53.876;10.674;2023-05-29T00:42:12;15.60;67.20
72786;DHT22;60902;53.876;10.674;2023-05-29T00:42:25;15.60;67.20
72786;DHT22;60902;53.876;10.674;2023-05-29T00:42:35;15.60;67.30
72786;DHT22;60902;53.876;10.674;2023-05-29T00:42:46;15.70;68.30
72786;DHT22;60902;53.876;10.674;2023-05-29T00:42:57;15.60;68.20
72786;DHT22;60902;53.876;10.674;2023-05-29T00:43:08;15.60;67.30
72786;DHT22;60902;53.876;10.674;2023-05-29T00:43:19;15.60;67.20
72786;DHT22;60902;53.876;10.674;2023-05-29T00:43:30;15.60;67.30
72786;DHT22;60902;53.876;10.674;2023-05-29T00:43:42;15.60;67.30
72786;DHT22;60902;53.876;10.674;2023-05-29T00:43:53;15.60;67.30
72786;DHT22;60902;53.876;10.674;2023-05-29T00:44:04;15.60;67.30
72786;DHT22;60902;53.876;10.674;2023-05-29T00:44:15;15.60;67.30
72786;DHT22;60902;53.876;10.674;2023-05-29T00:44:26;15.60;67.30
72786;DHT22;60902;53.876;10.674;2023-05-29T00:44:37;15.60;67.30
72786;DHT22;60902;53.876;10.674;2023-05-29T00:44:48;15.60;67.30
72786;DHT22;60902;53.876;10.674;2023-05-29T00:44:59;15.60;67.30
72786;DHT22;60902;53.876;10.674;2023-05-29T00:45:11;15.60;67.30
72786;DHT22;60902;53.876;10.674;2023-05-29T00:45:23;15.70;67.40
72786;DHT22;60902;53.876;10.674;2023-05-29T00:45:34;15.60;67.30
72786;DHT22;60902;53.876;10.674;2023-05-29T00:45:46;15.60;67.30
72786;DHT22;60902;53.876;10.674;2023-05-29T00:45:58;15.60;67.30
72786;DHT22;60902;53.876;10.674;2023-05-29T00:46:09;15.60;67.40
72786;DHT22;60902;53.876;10.674;2023-05-29T00:46:23;15.60;67.30
72786;DHT22;60902;53.876;10.674;2023-05-29T00:46:35;15.60;67.30
72786;DHT22;60902;53.876;10.674;2023-05-29T00:46:49;15.60;67.30
72786;DHT22;60902;53.876;10.674;2023-05-29T00:47:01;15.60;67.40
72786;DHT22;60902;53.876;10.674;2023-05-29T00:47:12;15.60;67.30
72786;DHT22;60902;53.876;10.674;2023-05-29T00:47:24;15.60;67.30
72786;DHT22;60902;53.876;10.674;2023-05-29T00:47:38;15.70;67.40
72786;DHT22;60902;53.876;10.674;2023-05-29T00:47:49;15.60;67.30
72786;DHT22;60902;53.876;10.674;2023-05-29T00:48:01;15.60;67.30
72786;DHT22;60902;53.876;10.674;2023-05-29T00:48:12;15.60;67.40
72786;DHT22;60902;53.876;10.674;2023-05-29T00:48:26;15.60;67.40
72786;DHT22;60902;53.876;10.674;2023-05-29T00:48:41;15.60;67.40
72786;DHT22;60902;53.876;10.674;2023-05-29T00:48:55;15.60;68.40
72786;DHT22;60902;53.876;10.674;2023-05-29T00:49:08;15.60;67.30
72786;DHT22;60902;53.876;10.674;2023-05-29T00:49:20;15.60;67.40
72786;DHT22;60902;53.876;10.674;2023-05-29T00:49:35;15.60;67.40
72786;DHT22;60902;53.876;10.674;2023-05-29T00:49:47;15.60;67.40
72786;DHT22;60902;53.876;10.674;2023-05-29T00:49:59;15.60;67.50
72786;DHT22;60902;53.876;10.674;2023-05-29T00:50:11;15.60;67.40
72786;DHT22;60902;53.876;10.674;2023-05-29T00:50:24;15.60;67.40
72786;DHT22;60902;53.876;10.674;2023-05-29T00:50:35;15.60;67.40
72786;DHT22;60902;53.876;10.674;2023-05-29T00:50:46;15.60;67.40
72786;DHT22;60902;53.876;10.674;2023-05-29T00:50:57;15.60;67.40
72786;DHT22;60902;53.876;10.674;2023-05-29T00:51:10;15.60;67.40
72786;DHT22;60902;53.876;10.674;2023-05-29T00:51:22;15.60;67.40
72786;DHT22;60902;53.876;10.674;2023-05-29T00:51:33;15.60;67.40
72786;DHT22;60902;53.876;10.674;2023-05-29T00:51:44;15.60;67.40
72786;DHT22;60902;53.876;10.674;2023-05-29T00:51:56;15.60;67.40
72786;DHT22;60902;53.876;10.674;2023-05-29T00:52:07;15.60;67.40
72786;DHT22;60902;53.876;10.674;2023-05-29T00:52:20;15.60;67.70
72786;DHT22;60902;53.876;10.674;2023-05-29T00:52:34;15.60;67.40
72786;DHT22;60902;53.876;10.674;2023-05-29T00:52:48;15.60;67.50
72786;DHT22;60902;53.876;10.674;2023-05-29T00:52:59;15.60;67.40
72786;DHT22;60902;53.876;10.674;2023-05-29T00:53:13;15.60;67.40
72786;DHT22;60902;53.876;10.674;2023-05-29T00:53:24;15.60;67.40
72786;DHT22;60902;53.876;10.674;2023-05-29T00:53:36;15.60;67.40
72786;DHT22;60902;53.876;10.674;2023-05-29T00:53:48;15.60;67.40
72786;DHT22;60902;53.876;10.674;2023-05-29T00:54:02;15.60;67.40
72786;DHT22;60902;53.876;10.674;2023-05-29T00:54:17;15.60;67.50
72786;DHT22;60902;53.876;10.674;2023-05-29T00:54:30;15.60;67.40
72786;DHT22;60902;53.876;10.674;2023-05-29T00:54:43;15.60;67.50
72786;DHT22;60902;53.876;10.674;2023-05-29T00:54:55;15.60;67.50
72786;DHT22;60902;53.876;10.674;2023-05-29T00:55:07;15.60;67.50
72786;DHT22;60902;53.876;10.674;2023-05-29T00:55:20;15.60;67.50
72786;DHT22;60902;53.876;10.674;2023-05-29T00:55:32;15.60;67.50
72786;DHT22;60902;53.876;10.674;2023-05-29T00:55:43;15.60;67.50
72786;DHT22;60902;53.876;10.674;2023-05-29T00:55:54;15.60;67.40
72786;DHT22;60902;53.876;10.674;2023-05-29T00:56:05;15.60;67.50
72786;DHT22;60902;53.876;10.674;2023-05-29T00:56:18;15.60;67.50
72786;DHT22;60902;53.876;10.674;2023-05-29T00:56:31;15.60;67.50
72786;DHT22;60902;53.876;10.674;2023-05-29T00:56:42;15.60;67.50
72786;DHT22;60902;53.876;10.674;2023-05-29T00:56:55;15.60;67.50
72786;DHT22;60902;53.876;10.674;2023-05-29T00:57:07;15.60;67.50
72786;DHT22;60902;53.876;10.674;2023-05-29T00:57:18;15.60;67.50
72786;DHT22;60902;53.876;10.674;2023-05-29T00:57:33;15.70;67.60
72786;DHT22;60902;53.876;10.674;2023-05-29T00:57:44;15.60;67.60
72786;DHT22;60902;53.876;10.674;2023-05-29T00:57:57;15.60;67.50
72786;DHT22;60902;53.876;10.674;2023-05-29T00:58:10;15.60;67.50
72786;DHT22;60902;53.876;10.674;2023-05-29T00:58:21;15.60;67.50
72786;DHT22;60902;53.876;10.674;2023-05-29T00:58:33;15.60;67.50
72786;DHT22;60902;53.876;10.674;2023-05-29T00:58:44;15.60;67.50
72786;DHT22;60902;53.876;10.674;2023-05-29T00:58:55;15.60;67.50
72786;DHT22;60902;53.876;10.674;2023-05-29T00:59:06;15.60;67.60
72786;DHT22;60902;53.876;10.674;2023-05-29T00:59:20;15.60;67.50
72786;DHT22;60902;53.876;10.674;2023-05-29T00:59:33;15.60;67.50
72786;DHT22;60902;53.876;10.674;2023-05-29T00:59:46;15.60;67.50
72786;DHT22;60902;53.876;10.674;2023-05-29T00:59:58;15.60;67.50
72786;DHT22;60902;53.876;10.674;2023-05-29T01:00:11;15.60;67.60
72786;DHT22;60902;53.876;10.674;2023-05-29T01:00:24;15.60;67.50
72786;DHT22;60902;53.876;10.674;2023-05-29T01:00:35;15.60;67.60
72786;DHT22;60902;53.876;10.674;2023-05-29T01:00:46;15.60;67.50
72786;DHT22;60902;53.876;10.674;2023-05-29T01:00:57;15.60;67.60
72786;DHT22;60902;53.876;10.674;2023-05-29T01:01:09;15.60;67.50
72786;DHT22;60902;53.876;10.674;2023-05-29T01:01:22;15.60;67.50
72786;DHT22;60902;53.876;10.674;2023-05-29T01:01:33;15.60;67.50
72786;DHT22;60902;53.876;10.674;2023-05-29T01:01:47;15.60;67.50
72786;DHT22;60902;53.876;10.674;2023-05-29T01:01:59;15.60;67.50
72786;DHT22;60902;53.876;10.674;2023-05-29T01:02:11;15.60;67.60
72786;DHT22;60902;53.876;10.674;2023-05-29T01:02:25;15.60;67.50
72786;DHT22;60902;53.876;10.674;2023-05-29T01:02:38;15.60;67.60
72786;DHT22;60902;53.876;10.674;2023-05-29T01:02:51;15.60;67.60
72786;DHT22;60902;53.876;10.674;2023-05-29T01:03:03;15.60;67.60
72786;DHT22;60902;53.876;10.674;2023-05-29T01:03:15;15.60;67.60
72786;DHT22;60902;53.876;10.674;2023-05-29T01:03:29;15.60;67.60
72786;DHT22;60902;53.876;10.674;2023-05-29T01:03:43;15.60;67.60
72786;DHT22;60902;53.876;10.674;2023-05-29T01:03:55;15.60;67.60
72786;DHT22;60902;53.876;10.674;2023-05-29T01:04:07;15.60;68.50
72786;DHT22;60902;53.876;10.674;2023-05-29T01:04:20;15.60;67.60
72786;DHT22;60902;53.876;10.674;2023-05-29T01:04:32;15.60;67.60
72786;DHT22;60902;53.876;10.674;2023-05-29T01:04:45;15.60;67.60
72786;DHT22;60902;53.876;10.674;2023-05-29T01:04:57;15.60;67.60
72786;DHT22;60902;53.876;10.674;2023-05-29T01:05:08;15.60;67.60
72786;DHT22;60902;53.876;10.674;2023-05-29T01:05:20;15.60;67.60
72786;DHT22;60902;53.876;10.674;2023-05-29T01:05:33;15.60;67.60
72786;DHT22;60902;53.876;10.674;2023-05-29T01:05:45;15.60;67.60
72786;DHT22;60902;53.876;10.674;2023-05-29T01:05:56;15.60;67.60
72786;DHT22;60902;53.876;10.674;2023-05-29T01:06:08;15.60;67.60
72786;DHT22;60902;53.876;10.674;2023-05-29T01:06:21;15.60;67.60
72786;DHT22;60902;53.876;10.674;2023-05-29T01:06:33;15.60;67.60
72786;DHT22;60902;53.876;10.674;2023-05-29T01:06:44;15.60;67.60
72786;DHT22;60902;53.876;10.674;2023-05-29T01:06:56;15.60;67.60
72786;DHT22;60902;53.876;10.674;2023-05-29T01:07:07;15.60;67.60
72786;DHT22;60902;53.876;10.674;2023-05-29T01:07:20;15.60;67.60
72786;DHT22;60902;53.876;10.674;2023-05-29T01:07:35;15.60;67.60
72786;DHT22;60902;53.876;10.674;2023-05-29T01:07:46;15.60;67.70
72786;DHT22;60902;53.876;10.674;2023-05-29T01:07:57;15.60;67.70
72786;DHT22;60902;53.876;10.674;2023-05-29T01:08:13;15.60;67.60
72786;DHT22;60902;53.876;10.674;2023-05-29T01:08:25;15.60;67.60
72786;DHT22;60902;53.876;10.674;2023-05-29T01:08:36;15.60;67.70
72786;DHT22;60902;53.876;10.674;2023-05-29T01:08:48;15.60;67.70
72786;DHT22;60902;53.876;10.674;2023-05-29T01:08:59;15.60;67.60
72786;DHT22;60902;53.876;10.674;2023-05-29T01:09:10;15.60;67.70
72786;DHT22;60902;53.876;10.674;2023-05-29T01:09:21;15.60;67.60
72786;DHT22;60902;53.876;10.674;2023-05-29T01:09:32;15.60;67.60
72786;DHT22;60902;53.876;10.674;2023-05-29T01:09:44;15.60;67.70
72786;DHT22;60902;53.876;10.674;2023-05-29T01:09:55;15.60;67.70
72786;DHT22;60902;53.876;10.674;2023-05-29T01:10:08;15.60;67.70
72786;DHT22;60902;53.876;10.674;2023-05-29T01:10:19;15.60;67.70
72786;DHT22;60902;53.876;10.674;2023-05-29T01:10:32;15.60;67.70
72786;DHT22;60902;53.876;10.674;2023-05-29T01:10:43;15.60;67.70
72786;DHT22;60902;53.876;10.674;2023-05-29T01:11:01;15.60;67.70
72786;DHT22;60902;53.876;10.674;2023-05-29T01:11:24;15.60;67.70
72786;DHT22;60902;53.876;10.674;2023-05-29T01:11:49;15.60;67.70
72786;DHT22;60902;53.876;10.674;2023-05-29T01:12:08;15.60;67.70
72786;DHT22;60902;53.876;10.674;2023-05-29T01:12:32;15.60;67.80
72786;DHT22;60902;53.876;10.674;2023-05-29T01:12:49;15.60;68.70
72786;DHT22;60902;53.876;10.674;2023-05-29T01:13:06;15.60;67.70
72786;DHT22;60902;53.876;10.674;2023-05-29T01:13:21;15.60;67.80
72786;DHT22;60902;53.876;10.674;2023-05-29T01:13:35;15.60;67.80
72786;DHT22;60902;53.876;10.674;2023-05-29T01:13:48;15.60;67.80
72786;DHT22;60902;53.876;10.674;2023-05-29T01:14:05;15.60;67.80
72786;DHT22;60902;53.876;10.674;2023-05-29T01:14:25;15.60;67.80
72786;DHT22;60902;53.876;10.674;2023-05-29T01:14:47;15.60;67.80
72786;DHT22;60902;53.876;10.674;2023-05-29T01:15:20;15.60;67.80
72786;DHT22;60902;53.876;10.674;2023-05-29T01:15:39;15.60;67.80
72786;DHT22;60902;53.876;10.674;2023-05-29T01:15:58;15.60;67.80
72786;DHT22;60902;53.876;10.674;2023-05-29T01:16:14;15.60;67.80
72786;DHT22;60902;53.876;10.674;2023-05-29T01:16:33;15.60;67.90
72786;DHT22;60902;53.876;10.674;2023-05-29T01:16:51;15.60;67.80
72786;DHT22;60902;53.876;10.674;2023-05-29T01:17:07;15.60;67.90